sensor_id;sensor_type;location;lat;lon;timestamp;pressure;altitude;pressure_sealevel;temperature;humidity
62592;BME280;48659;41.622;2.276;2023-03-19T00:00:12;99859.72;;;12.86;58.52
62592;BME280;48659;41.622;2.276;2023-03-19T00:02:40;99856.03;;;12.73;59.26
62592;BME280;48659;41.622;2.276;2023-03-19T00:05:07;99858.03;;;12.51;58.79
62592;BME280;48659;41.622;2.276;2023-03-19T00:07:34;99865.76;;;12.60;61.05
62592;BME280;48659;41.622;2.276;2023-03-19T00:10:02;99868.28;;;11.85;61.94
62592;BME280;48659;41.622;2.276;2023-03-19T00:12:30;99871.05;;;9.90;65.36
62592;BME280;48659;41.622;2.276;2023-03-19T00:14:57;99867.78;;;11.94;62.66
62592;BME280;48659;41.622;2.276;2023-03-19T00:17:25;99867.21;;;11.68;64.33
62592;BME280;48659;41.622;2.276;2023-03-19T00:19:52;99870.16;;;9.80;65.46
62592;BME280;48659;41.622;2.276;2023-03-19T00:22:21;99873.58;;;11.05;61.27
62592;BME280;48659;41.622;2.276;2023-03-19T00:25:02;99875.85;;;10.51;61.45
62592;BME280;48659;41.622;2.276;2023-03-19T00:27:33;99883.13;;;10.01;61.83
62592;BME280;48659;41.622;2.276;2023-03-19T00:30:01;99884.85;;;10.48;61.62
62592;BME280;48659;41.622;2.276;2023-03-19T00:32:29;99881.48;;;10.84;61.53
62592;BME280;48659;41.622;2.276;2023-03-19T00:34:56;99879.86;;;12.22;58.53
62592;BME280;48659;41.622;2.276;2023-03-19T00:37:26;99886.45;;;9.24;64.53
62592;BME280;48659;41.622;2.276;2023-03-19T00:39:53;99891.91;;;11.99;62.18
62592;BME280;48659;41.622;2.276;2023-03-19T00:42:21;99897.56;;;12.47;62.07
62592;BME280;48659;41.622;2.276;2023-03-19T00:44:49;99895.81;;;11.98;62.32
62592;BME280;48659;41.622;2.276;2023-03-19T00:47:38;99895.38;;;11.24;61.78
62592;BME280;48659;41.622;2.276;2023-03-19T00:50:05;99890.30;;;11.47;61.49
62592;BME280;48659;41.622;2.276;2023-03-19T00:52:58;99894.20;;;10.19;61.73
62592;BME280;48659;41.622;2.276;2023-03-19T00:55:26;99893.24;;;11.04;59.57
62592;BME280;48659;41.622;2.276;2023-03-19T00:57:54;99894.51;;;12.56;59.20
62592;BME280;48659;41.622;2.276;2023-03-19T01:00:21;99900.63;;;13.41;58.44
62592;BME280;48659;41.622;2.276;2023-03-19T01:02:49;99905.67;;;13.73;56.74
62592;BME280;48659;41.622;2.276;2023-03-19T01:05:17;99911.09;;;14.40;56.35
62592;BME280;48659;41.622;2.276;2023-03-19T01:07:45;99916.99;;;13.75;55.62
62592;BME280;48659;41.622;2.276;2023-03-19T01:10:12;99919.14;;;13.25;56.17
62592;BME280;48659;41.622;2.276;2023-03-19T01:12:40;99918.52;;;12.72;59.66
62592;BME280;48659;41.622;2.276;2023-03-19T01:15:08;99916.54;;;13.61;57.94
62592;BME280;48659;41.622;2.276;2023-03-19T01:17:35;99913.50;;;14.15;57.11
62592;BME280;48659;41.622;2.276;2023-03-19T01:20:04;99914.62;;;13.72;56.21
62592;BME280;48659;41.622;2.276;2023-03-19T01:22:34;99909.16;;;13.04;57.22
62592;BME280;48659;41.622;2.276;2023-03-19T01:25:03;99911.71;;;13.96;55.12
62592;BME280;48659;41.622;2.276;2023-03-19T01:27:30;99914.62;;;14.10;55.61
62592;BME280;48659;41.622;2.276;2023-03-19T01:29:57;99914.17;;;13.08;56.36
62592;BME280;48659;41.622;2.276;2023-03-19T01:32:25;99909.95;;;14.42;53.72
62592;BME280;48659;41.622;2.276;2023-03-19T01:34:52;99908.48;;;14.55;53.17
62592;BME280;48659;41.622;2.276;2023-03-19T01:37:20;99908.12;;;14.90;53.58
62592;BME280;48659;41.622;2.276;2023-03-19T01:39:47;99905.12;;;15.23;52.74
62592;BME280;48659;41.622;2.276;2023-03-19T01:42:15;99906.45;;;14.62;53.49
62592;BME280;48659;41.622;2.276;2023-03-19T01:44:42;99906.71;;;14.65;54.15
62592;BME280;48659;41.622;2.276;2023-03-19T01:47:15;99906.14;;;14.40;53.87
62592;BME280;48659;41.622;2.276;2023-03-19T01:49:46;99902.82;;;14.63;53.01
62592;BME280;48659;41.622;2.276;2023-03-19T01:52:16;99902.57;;;14.55;52.94
62592;BME280;48659;41.622;2.276;2023-03-19T01:54:44;99902.50;;;15.15;52.09
62592;BME280;48659;41.622;2.276;2023-03-19T01:57:13;99902.14;;;14.96;51.89
62592;BME280;48659;41.622;2.276;2023-03-19T01:59:45;99900.74;;;14.67;51.93
62592;BME280;48659;41.622;2.276;2023-03-19T02:02:19;99892.82;;;15.38;50.77
62592;BME280;48659;41.622;2.276;2023-03-19T02:04:52;99895.34;;;15.57;50.27
62592;BME280;48659;41.622;2.276;2023-03-19T02:07:22;99895.80;;;15.76;49.35
62592;BME280;48659;41.622;2.276;2023-03-19T02:09:50;99906.34;;;13.67;54.28
62592;BME280;48659;41.622;2.276;2023-03-19T02:12:18;99904.75;;;14.55;52.77
62592;BME280;48659;41.622;2.276;2023-03-19T02:14:45;99903.86;;;14.67;52.48
62592;BME280;48659;41.622;2.276;2023-03-19T02:17:12;99910.06;;;13.44;53.61
62592;BME280;48659;41.622;2.276;2023-03-19T02:19:46;99908.26;;;15.20;51.26
62592;BME280;48659;41.622;2.276;2023-03-19T02:22:19;99915.06;;;13.50;53.58
62592;BME280;48659;41.622;2.276;2023-03-19T02:24:52;99917.34;;;13.27;56.18
62592;BME280;48659;41.622;2.276;2023-03-19T02:27:22;99918.36;;;12.81;57.42
62592;BME280;48659;41.622;2.276;2023-03-19T02:29:51;99922.31;;;13.16;57.28
62592;BME280;48659;41.622;2.276;2023-03-19T02:32:18;99921.70;;;14.51;52.99
62592;BME280;48659;41.622;2.276;2023-03-19T02:34:46;99921.86;;;14.64;51.86
62592;BME280;48659;41.622;2.276;2023-03-19T02:37:16;99921.70;;;14.25;52.18
62592;BME280;48659;41.622;2.276;2023-03-19T02:39:52;99921.67;;;15.04;51.72
62592;BME280;48659;41.622;2.276;2023-03-19T02:42:22;99923.36;;;14.71;51.72
62592;BME280;48659;41.622;2.276;2023-03-19T02:44:52;99919.89;;;14.78;51.03
62592;BME280;48659;41.622;2.276;2023-03-19T02:47:19;99916.37;;;15.25;50.09
62592;BME280;48659;41.622;2.276;2023-03-19T02:49:46;99917.01;;;15.07;50.30
62592;BME280;48659;41.622;2.276;2023-03-19T02:52:13;99918.40;;;15.73;49.90
62592;BME280;48659;41.622;2.276;2023-03-19T02:54:40;99920.03;;;15.37;49.63
62592;BME280;48659;41.622;2.276;2023-03-19T02:57:07;99916.20;;;15.39;49.59
62592;BME280;48659;41.622;2.276;2023-03-19T02:59:35;99911.95;;;15.58;49.17
62592;BME280;48659;41.622;2.276;2023-03-19T03:02:03;99909.85;;;15.46;48.93
62592;BME280;48659;41.622;2.276;2023-03-19T03:04:30;99911.84;;;15.24;50.05
62592;BME280;48659;41.622;2.276;2023-03-19T03:06:59;99919.69;;;12.78;54.89
62592;BME280;48659;41.622;2.276;2023-03-19T03:09:26;99919.77;;;12.56;57.66
62592;BME280;48659;41.622;2.276;2023-03-19T03:11:54;99920.75;;;13.30;54.46
62592;BME280;48659;41.622;2.276;2023-03-19T03:14:22;99924.54;;;14.17;54.48
62592;BME280;48659;41.622;2.276;2023-03-19T03:16:50;99923.48;;;13.09;56.72
62592;BME280;48659;41.622;2.276;2023-03-19T03:19:18;99924.80;;;14.72;53.39
62592;BME280;48659;41.622;2.276;2023-03-19T03:21:45;99928.45;;;12.41;59.39
62592;BME280;48659;41.622;2.276;2023-03-19T03:24:13;99933.00;;;11.64;63.15
62592;BME280;48659;41.622;2.276;2023-03-19T03:26:41;99931.26;;;12.38;60.32
62592;BME280;48659;41.622;2.276;2023-03-19T03:29:09;99930.78;;;12.97;58.41
62592;BME280;48659;41.622;2.276;2023-03-19T03:31:37;99933.15;;;13.61;56.39
62592;BME280;48659;41.622;2.276;2023-03-19T03:34:04;99934.84;;;12.75;58.92
62592;BME280;48659;41.622;2.276;2023-03-19T03:36:31;99933.30;;;13.21;57.33
62592;BME280;48659;41.622;2.276;2023-03-19T03:38:59;99933.63;;;12.55;57.36
62592;BME280;48659;41.622;2.276;2023-03-19T03:41:26;99933.65;;;12.73;57.26
62592;BME280;48659;41.622;2.276;2023-03-19T03:43:54;99931.53;;;12.95;55.52
62592;BME280;48659;41.622;2.276;2023-03-19T03:46:22;99938.71;;;10.47;58.56
62592;BME280;48659;41.622;2.276;2023-03-19T03:48:51;99942.59;;;12.14;58.33
62592;BME280;48659;41.622;2.276;2023-03-19T03:51:19;99941.57;;;11.66;58.63
62592;BME280;48659;41.622;2.276;2023-03-19T03:53:47;99945.49;;;12.06;59.06
62592;BME280;48659;41.622;2.276;2023-03-19T03:56:14;99945.30;;;13.08;56.19
62592;BME280;48659;41.622;2.276;2023-03-19T03:58:41;99945.17;;;13.63;54.65
62592;BME280;48659;41.622;2.276;2023-03-19T04:01:12;99944.68;;;14.13;51.90
62592;BME280;48659;41.622;2.276;2023-03-19T04:03:40;99948.02;;;14.85;51.24
62592;BME280;48659;41.622;2.276;2023-03-19T04:06:15;99950.10;;;13.67;53.83
62592;BME280;48659;41.622;2.276;2023-03-19T04:08:44;99949.18;;;14.14;53.15
62592;BME280;48659;41.622;2.276;2023-03-19T04:11:11;99953.24;;;13.35;51.22
62592;BME280;48659;41.622;2.276;2023-03-19T04:13:39;99954.85;;;13.49;53.05
62592;BME280;48659;41.622;2.276;2023-03-19T04:16:08;99954.26;;;14.49;49.63
62592;BME280;48659;41.622;2.276;2023-03-19T04:18:36;99957.87;;;13.99;51.84
62592;BME280;48659;41.622;2.276;2023-03-19T04:21:05;99956.93;;;14.13;50.90
62592;BME280;48659;41.622;2.276;2023-03-19T04:23:32;99956.77;;;13.58;51.32
62592;BME280;48659;41.622;2.276;2023-03-19T04:26:07;99959.99;;;13.04;55.71
62592;BME280;48659;41.622;2.276;2023-03-19T04:28:34;99966.18;;;11.94;58.61
62592;BME280;48659;41.622;2.276;2023-03-19T04:31:03;99968.71;;;12.37;57.64
62592;BME280;48659;41.622;2.276;2023-03-19T04:33:32;99967.47;;;13.19;56.06
62592;BME280;48659;41.622;2.276;2023-03-19T04:36:07;99968.00;;;12.42;54.85
62592;BME280;48659;41.622;2.276;2023-03-19T04:38:35;99968.87;;;14.23;53.05
62592;BME280;48659;41.622;2.276;2023-03-19T04:41:02;99973.61;;;14.05;51.89
62592;BME280;48659;41.622;2.276;2023-03-19T04:43:29;99981.31;;;12.33;55.40
62592;BME280;48659;41.622;2.276;2023-03-19T04:45:57;99983.73;;;12.84;54.13
62592;BME280;48659;41.622;2.276;2023-03-19T04:48:25;99989.16;;;12.45;55.00
62592;BME280;48659;41.622;2.276;2023-03-19T04:50:53;99989.22;;;12.31;55.22
62592;BME280;48659;41.622;2.276;2023-03-19T04:53:20;99989.91;;;11.94;54.61
62592;BME280;48659;41.622;2.276;2023-03-19T04:55:47;99994.47;;;10.76;58.74
62592;BME280;48659;41.622;2.276;2023-03-19T04:58:14;99989.83;;;11.62;56.83
62592;BME280;48659;41.622;2.276;2023-03-19T05:00:41;99992.18;;;10.67;55.61
62592;BME280;48659;41.622;2.276;2023-03-19T05:03:09;99995.81;;;11.25;57.26
62592;BME280;48659;41.622;2.276;2023-03-19T05:05:36;100001.92;;;11.13;59.10
62592;BME280;48659;41.622;2.276;2023-03-19T05:08:04;100000.31;;;11.66;57.65
62592;BME280;48659;41.622;2.276;2023-03-19T05:10:32;100001.97;;;12.03;57.52
62592;BME280;48659;41.622;2.276;2023-03-19T05:12:59;100010.79;;;10.99;59.75
62592;BME280;48659;41.622;2.276;2023-03-19T05:15:26;100016.98;;;10.19;62.07
62592;BME280;48659;41.622;2.276;2023-03-19T05:17:54;100014.27;;;12.22;57.76
62592;BME280;48659;41.622;2.276;2023-03-19T05:20:21;100013.18;;;12.86;55.36
62592;BME280;48659;41.622;2.276;2023-03-19T05:22:48;100023.43;;;10.98;61.04
62592;BME280;48659;41.622;2.276;2023-03-19T05:25:15;100015.44;;;11.53;59.79
62592;BME280;48659;41.622;2.276;2023-03-19T05:27:43;100015.14;;;11.77;60.64
62592;BME280;48659;41.622;2.276;2023-03-19T05:30:11;100017.57;;;12.42;57.85
62592;BME280;48659;41.622;2.276;2023-03-19T05:32:39;100019.87;;;12.19;59.53
62592;BME280;48659;41.622;2.276;2023-03-19T05:35:08;100022.49;;;11.95;59.34
62592;BME280;48659;41.622;2.276;2023-03-19T05:37:35;100023.29;;;11.48;59.38
62592;BME280;48659;41.622;2.276;2023-03-19T05:40:17;100027.66;;;10.80;59.46
62592;BME280;48659;41.622;2.276;2023-03-19T05:42:45;100030.00;;;11.78;57.98
62592;BME280;48659;41.622;2.276;2023-03-19T05:45:13;100031.53;;;12.87;55.51
62592;BME280;48659;41.622;2.276;2023-03-19T05:47:41;100038.03;;;11.21;58.19
62592;BME280;48659;41.622;2.276;2023-03-19T05:50:10;100049.51;;;9.77;58.80
62592;BME280;48659;41.622;2.276;2023-03-19T05:52:40;100045.22;;;10.15;59.04
62592;BME280;48659;41.622;2.276;2023-03-19T05:55:08;100045.16;;;11.78;55.99
62592;BME280;48659;41.622;2.276;2023-03-19T05:57:35;100046.31;;;13.57;53.88
62592;BME280;48659;41.622;2.276;2023-03-19T06:00:04;100047.76;;;14.57;50.58
62592;BME280;48659;41.622;2.276;2023-03-19T06:02:32;100053.39;;;14.55;50.73
62592;BME280;48659;41.622;2.276;2023-03-19T06:05:00;100061.90;;;12.30;53.96
62592;BME280;48659;41.622;2.276;2023-03-19T06:07:27;100067.10;;;14.03;52.85
62592;BME280;48659;41.622;2.276;2023-03-19T06:09:54;100070.57;;;13.74;53.04
62592;BME280;48659;41.622;2.276;2023-03-19T06:12:21;100078.79;;;13.26;55.09
62592;BME280;48659;41.622;2.276;2023-03-19T06:14:49;100082.33;;;13.41;55.10
62592;BME280;48659;41.622;2.276;2023-03-19T06:17:17;100087.13;;;14.10;52.96
62592;BME280;48659;41.622;2.276;2023-03-19T06:19:44;100095.83;;;13.55;52.99
62592;BME280;48659;41.622;2.276;2023-03-19T06:22:12;100103.79;;;11.65;54.06
62592;BME280;48659;41.622;2.276;2023-03-19T06:24:40;100106.27;;;12.13;52.42
62592;BME280;48659;41.622;2.276;2023-03-19T06:27:12;100108.83;;;12.69;52.41
62592;BME280;48659;41.622;2.276;2023-03-19T06:29:40;100120.95;;;11.16;56.61
62592;BME280;48659;41.622;2.276;2023-03-19T06:32:11;100121.73;;;12.65;53.41
62592;BME280;48659;41.622;2.276;2023-03-19T06:34:38;100132.47;;;11.68;57.17
62592;BME280;48659;41.622;2.276;2023-03-19T06:37:06;100136.10;;;11.51;57.92
62592;BME280;48659;41.622;2.276;2023-03-19T06:39:34;100138.39;;;12.31;57.26
62592;BME280;48659;41.622;2.276;2023-03-19T06:42:01;100144.46;;;11.96;58.78
62592;BME280;48659;41.622;2.276;2023-03-19T06:44:29;100148.77;;;11.39;57.14
62592;BME280;48659;41.622;2.276;2023-03-19T06:46:56;100149.45;;;11.60;58.19
62592;BME280;48659;41.622;2.276;2023-03-19T06:49:24;100155.68;;;11.29;60.85
62592;BME280;48659;41.622;2.276;2023-03-19T06:51:51;100158.04;;;10.93;61.05
62592;BME280;48659;41.622;2.276;2023-03-19T06:54:19;100163.18;;;10.48;62.55
62592;BME280;48659;41.622;2.276;2023-03-19T06:56:46;100165.19;;;11.59;60.29
62592;BME280;48659;41.622;2.276;2023-03-19T06:59:13;100165.13;;;10.61;62.64
62592;BME280;48659;41.622;2.276;2023-03-19T07:01:41;100171.14;;;9.76;66.24
62592;BME280;48659;41.622;2.276;2023-03-19T07:04:08;100183.22;;;8.29;71.84
62592;BME280;48659;41.622;2.276;2023-03-19T07:06:36;100184.69;;;8.61;74.64
62592;BME280;48659;41.622;2.276;2023-03-19T07:09:04;100179.23;;;10.61;66.86
62592;BME280;48659;41.622;2.276;2023-03-19T07:11:31;100181.64;;;9.30;71.93
62592;BME280;48659;41.622;2.276;2023-03-19T07:13:58;100179.05;;;10.60;67.41
62592;BME280;48659;41.622;2.276;2023-03-19T07:16:26;100182.30;;;10.75;66.27
62592;BME280;48659;41.622;2.276;2023-03-19T07:18:53;100188.67;;;9.52;68.92
62592;BME280;48659;41.622;2.276;2023-03-19T07:21:20;100183.68;;;10.24;66.84
62592;BME280;48659;41.622;2.276;2023-03-19T07:23:47;100189.78;;;9.52;68.95
62592;BME280;48659;41.622;2.276;2023-03-19T07:26:15;100189.93;;;10.60;65.95
62592;BME280;48659;41.622;2.276;2023-03-19T07:28:43;100191.81;;;11.67;63.65
62592;BME280;48659;41.622;2.276;2023-03-19T07:31:10;100191.71;;;10.93;62.22
62592;BME280;48659;41.622;2.276;2023-03-19T07:33:38;100191.38;;;10.99;65.53
62592;BME280;48659;41.622;2.276;2023-03-19T07:36:07;100196.75;;;12.49;60.12
62592;BME280;48659;41.622;2.276;2023-03-19T07:38:35;100195.04;;;11.86;60.21
62592;BME280;48659;41.622;2.276;2023-03-19T07:41:02;100199.06;;;11.20;62.25
62592;BME280;48659;41.622;2.276;2023-03-19T07:43:30;100201.79;;;10.73;63.85
62592;BME280;48659;41.622;2.276;2023-03-19T07:45:58;100205.09;;;11.82;62.42
62592;BME280;48659;41.622;2.276;2023-03-19T07:48:25;100204.84;;;12.08;59.70
62592;BME280;48659;41.622;2.276;2023-03-19T07:50:52;100202.45;;;13.56;56.81
62592;BME280;48659;41.622;2.276;2023-03-19T07:53:20;100210.45;;;11.66;59.40
62592;BME280;48659;41.622;2.276;2023-03-19T07:55:47;100209.43;;;12.38;58.29
62592;BME280;48659;41.622;2.276;2023-03-19T07:58:15;100213.85;;;12.41;58.25
62592;BME280;48659;41.622;2.276;2023-03-19T08:00:43;100224.26;;;12.17;59.77
62592;BME280;48659;41.622;2.276;2023-03-19T08:03:11;100228.47;;;10.64;61.45
62592;BME280;48659;41.622;2.276;2023-03-19T08:05:38;100231.49;;;11.70;61.09
62592;BME280;48659;41.622;2.276;2023-03-19T08:08:12;100234.84;;;9.38;66.61
62592;BME280;48659;41.622;2.276;2023-03-19T08:10:39;100234.50;;;12.18;60.26
62592;BME280;48659;41.622;2.276;2023-03-19T08:13:12;100236.55;;;10.55;62.74
62592;BME280;48659;41.622;2.276;2023-03-19T08:15:39;100236.53;;;12.89;58.60
62592;BME280;48659;41.622;2.276;2023-03-19T08:18:07;100240.39;;;12.66;58.59
62592;BME280;48659;41.622;2.276;2023-03-19T08:20:34;100243.78;;;11.85;59.71
62592;BME280;48659;41.622;2.276;2023-03-19T08:23:02;100242.20;;;12.42;59.43
62592;BME280;48659;41.622;2.276;2023-03-19T08:25:29;100238.20;;;13.58;56.01
62592;BME280;48659;41.622;2.276;2023-03-19T08:27:57;100241.26;;;13.68;54.98
62592;BME280;48659;41.622;2.276;2023-03-19T08:30:24;100243.27;;;13.59;53.39
62592;BME280;48659;41.622;2.276;2023-03-19T08:32:52;100244.65;;;14.12;52.80
62592;BME280;48659;41.622;2.276;2023-03-19T08:35:20;100240.26;;;14.20;51.47
62592;BME280;48659;41.622;2.276;2023-03-19T08:37:47;100241.06;;;15.09;50.04
62592;BME280;48659;41.622;2.276;2023-03-19T08:40:15;100244.94;;;13.66;50.06
62592;BME280;48659;41.622;2.276;2023-03-19T08:42:43;100243.38;;;15.15;49.83
62592;BME280;48659;41.622;2.276;2023-03-19T08:45:13;100242.43;;;14.69;48.78
62592;BME280;48659;41.622;2.276;2023-03-19T08:47:41;100252.38;;;12.94;55.44
62592;BME280;48659;41.622;2.276;2023-03-19T08:50:10;100249.54;;;14.58;50.68
62592;BME280;48659;41.622;2.276;2023-03-19T08:52:38;100255.45;;;14.70;48.59
62592;BME280;48659;41.622;2.276;2023-03-19T08:55:13;100257.87;;;14.85;47.69
62592;BME280;48659;41.622;2.276;2023-03-19T08:57:41;100257.23;;;15.29;48.27
62592;BME280;48659;41.622;2.276;2023-03-19T09:00:14;100260.01;;;14.78;47.94
62592;BME280;48659;41.622;2.276;2023-03-19T09:02:41;100256.15;;;15.08;48.42
62592;BME280;48659;41.622;2.276;2023-03-19T09:05:11;100251.41;;;14.87;48.34
62592;BME280;48659;41.622;2.276;2023-03-19T09:07:39;100247.97;;;15.52;46.03
62592;BME280;48659;41.622;2.276;2023-03-19T09:10:08;100249.47;;;15.93;45.94
62592;BME280;48659;41.622;2.276;2023-03-19T09:12:35;100252.25;;;16.19;45.38
62592;BME280;48659;41.622;2.276;2023-03-19T09:15:03;100254.12;;;16.41;44.29
62592;BME280;48659;41.622;2.276;2023-03-19T09:17:31;100255.80;;;16.11;44.27
62592;BME280;48659;41.622;2.276;2023-03-19T09:19:57;100252.33;;;17.10;42.94
62592;BME280;48659;41.622;2.276;2023-03-19T09:22:24;100247.71;;;17.37;42.13
62592;BME280;48659;41.622;2.276;2023-03-19T09:24:52;100246.39;;;17.21;41.76
62592;BME280;48659;41.622;2.276;2023-03-19T09:27:19;100252.01;;;16.61;41.91
62592;BME280;48659;41.622;2.276;2023-03-19T09:29:47;100253.03;;;14.62;44.58
62592;BME280;48659;41.622;2.276;2023-03-19T09:32:14;100255.04;;;15.44;43.14
62592;BME280;48659;41.622;2.276;2023-03-19T09:34:41;100252.90;;;17.38;41.81
62592;BME280;48659;41.622;2.276;2023-03-19T09:37:09;100252.87;;;16.70;42.22
62592;BME280;48659;41.622;2.276;2023-03-19T09:39:36;100255.65;;;16.41;42.35
62592;BME280;48659;41.622;2.276;2023-03-19T09:42:24;100260.58;;;16.09;42.75
62592;BME280;48659;41.622;2.276;2023-03-19T09:44:53;100251.77;;;17.76;40.59
62592;BME280;48659;41.622;2.276;2023-03-19T09:47:26;100251.63;;;17.01;40.02
62592;BME280;48659;41.622;2.276;2023-03-19T09:49:57;100252.10;;;18.13;40.08
62592;BME280;48659;41.622;2.276;2023-03-19T09:52:34;100249.53;;;17.94;39.99
62592;BME280;48659;41.622;2.276;2023-03-19T09:55:23;100249.86;;;17.68;39.44
62592;BME280;48659;41.622;2.276;2023-03-19T09:57:53;100248.70;;;18.16;39.32
62592;BME280;48659;41.622;2.276;2023-03-19T10:00:24;100257.36;;;15.72;41.67
62592;BME280;48659;41.622;2.276;2023-03-19T10:02:55;100256.94;;;18.39;39.59
62592;BME280;48659;41.622;2.276;2023-03-19T10:05:29;100253.08;;;17.94;39.82
62592;BME280;48659;41.622;2.276;2023-03-19T10:08:32;100259.24;;;15.45;43.88
62592;BME280;48659;41.622;2.276;2023-03-19T10:11:15;100255.26;;;17.40;43.19
62592;BME280;48659;41.622;2.276;2023-03-19T10:13:59;100260.62;;;17.30;41.39
62592;BME280;48659;41.622;2.276;2023-03-19T10:16:29;100260.06;;;15.64;42.51
62592;BME280;48659;41.622;2.276;2023-03-19T10:18:59;100256.73;;;17.74;42.11
62592;BME280;48659;41.622;2.276;2023-03-19T10:21:31;100259.81;;;16.78;42.45
62592;BME280;48659;41.622;2.276;2023-03-19T10:24:03;100256.72;;;17.72;40.74
62592;BME280;48659;41.622;2.276;2023-03-19T10:26:34;100260.37;;;15.02;44.19
62592;BME280;48659;41.622;2.276;2023-03-19T10:29:13;100260.90;;;16.17;42.52
62592;BME280;48659;41.622;2.276;2023-03-19T10:31:48;100252.18;;;17.40;39.60
62592;BME280;48659;41.622;2.276;2023-03-19T10:34:27;100260.40;;;16.71;40.62
62592;BME280;48659;41.622;2.276;2023-03-19T10:36:59;100262.53;;;16.59;42.16
62592;BME280;48659;41.622;2.276;2023-03-19T10:39:27;100263.94;;;15.85;41.19
62592;BME280;48659;41.622;2.276;2023-03-19T10:42:36;100261.07;;;17.07;40.05
62592;BME280;48659;41.622;2.276;2023-03-19T10:45:20;100260.38;;;16.47;40.39
62592;BME280;48659;41.622;2.276;2023-03-19T10:47:51;100257.58;;;16.71;39.65
62592;BME280;48659;41.622;2.276;2023-03-19T10:50:21;100256.36;;;16.04;38.91
62592;BME280;48659;41.622;2.276;2023-03-19T10:52:50;100255.71;;;16.50;38.95
62592;BME280;48659;41.622;2.276;2023-03-19T10:55:23;100256.57;;;15.79;39.23
62592;BME280;48659;41.622;2.276;2023-03-19T10:58:00;100249.08;;;17.02;38.50
62592;BME280;48659;41.622;2.276;2023-03-19T11:00:30;100248.13;;;14.96;39.99
62592;BME280;48659;41.622;2.276;2023-03-19T11:02:58;100241.40;;;17.81;37.53
62592;BME280;48659;41.622;2.276;2023-03-19T11:05:27;100241.99;;;18.56;36.01
62592;BME280;48659;41.622;2.276;2023-03-19T11:08:00;100242.45;;;17.61;37.53
62592;BME280;48659;41.622;2.276;2023-03-19T11:10:30;100236.97;;;17.11;36.16
62592;BME280;48659;41.622;2.276;2023-03-19T11:12:59;100228.72;;;19.05;35.48
62592;BME280;48659;41.622;2.276;2023-03-19T11:15:33;100225.96;;;18.14;36.43
62592;BME280;48659;41.622;2.276;2023-03-19T11:18:07;100218.20;;;18.91;35.15
62592;BME280;48659;41.622;2.276;2023-03-19T11:20:36;100218.81;;;17.62;37.00
62592;BME280;48659;41.622;2.276;2023-03-19T11:23:10;100217.66;;;18.74;35.70
62592;BME280;48659;41.622;2.276;2023-03-19T11:25:40;100219.42;;;15.57;39.83
62592;BME280;48659;41.622;2.276;2023-03-19T11:28:12;100214.30;;;17.98;36.40
62592;BME280;48659;41.622;2.276;2023-03-19T11:30:50;100212.27;;;18.38;36.62
62592;BME280;48659;41.622;2.276;2023-03-19T11:33:42;100214.50;;;16.82;38.08
62592;BME280;48659;41.622;2.276;2023-03-19T11:36:20;100209.99;;;18.27;36.30
62592;BME280;48659;41.622;2.276;2023-03-19T11:38:58;100209.45;;;18.02;37.12
62592;BME280;48659;41.622;2.276;2023-03-19T11:41:41;100212.61;;;18.72;36.49
62592;BME280;48659;41.622;2.276;2023-03-19T11:44:17;100208.80;;;19.00;35.54
62592;BME280;48659;41.622;2.276;2023-03-19T11:46:55;100206.01;;;18.27;37.30
62592;BME280;48659;41.622;2.276;2023-03-19T11:49:36;100204.28;;;19.05;36.04
62592;BME280;48659;41.622;2.276;2023-03-19T11:52:15;100205.16;;;17.59;36.39
62592;BME280;48659;41.622;2.276;2023-03-19T11:54:53;100211.57;;;17.81;36.54
62592;BME280;48659;41.622;2.276;2023-03-19T11:57:32;100207.49;;;17.11;37.18
62592;BME280;48659;41.622;2.276;2023-03-19T12:00:24;100200.88;;;17.58;36.34
62592;BME280;48659;41.622;2.276;2023-03-19T12:03:26;100200.63;;;17.17;38.75
62592;BME280;48659;41.622;2.276;2023-03-19T12:05:59;100200.48;;;18.61;36.81
62592;BME280;48659;41.622;2.276;2023-03-19T12:08:42;100195.16;;;16.89;39.10
62592;BME280;48659;41.622;2.276;2023-03-19T12:11:18;100195.13;;;17.21;37.60
62592;BME280;48659;41.622;2.276;2023-03-19T12:14:02;100196.09;;;17.29;38.31
62592;BME280;48659;41.622;2.276;2023-03-19T12:16:41;100190.16;;;18.22;37.60
62592;BME280;48659;41.622;2.276;2023-03-19T12:19:32;100183.74;;;17.45;38.40
62592;BME280;48659;41.622;2.276;2023-03-19T12:22:18;100179.99;;;18.37;36.77
62592;BME280;48659;41.622;2.276;2023-03-19T12:25:01;100179.08;;;16.29;41.01
62592;BME280;48659;41.622;2.276;2023-03-19T12:27:48;100178.77;;;16.55;41.57
62592;BME280;48659;41.622;2.276;2023-03-19T12:30:28;100178.76;;;15.50;42.26
62592;BME280;48659;41.622;2.276;2023-03-19T12:33:20;100177.63;;;16.16;42.41
62592;BME280;48659;41.622;2.276;2023-03-19T12:35:55;100173.48;;;16.48;41.66
62592;BME280;48659;41.622;2.276;2023-03-19T12:38:26;100165.11;;;16.30;40.01
62592;BME280;48659;41.622;2.276;2023-03-19T12:40:59;100165.44;;;17.39;40.50
62592;BME280;48659;41.622;2.276;2023-03-19T12:43:33;100157.31;;;15.65;41.37
62592;BME280;48659;41.622;2.276;2023-03-19T12:46:22;100145.45;;;18.17;39.11
62592;BME280;48659;41.622;2.276;2023-03-19T12:48:53;100142.89;;;18.55;38.49
62592;BME280;48659;41.622;2.276;2023-03-19T12:51:25;100149.70;;;17.35;39.99
62592;BME280;48659;41.622;2.276;2023-03-19T12:53:56;100142.43;;;18.98;38.34
62592;BME280;48659;41.622;2.276;2023-03-19T12:56:28;100143.63;;;17.21;40.55
62592;BME280;48659;41.622;2.276;2023-03-19T12:59:04;100137.10;;;18.14;39.12
62592;BME280;48659;41.622;2.276;2023-03-19T13:01:38;100146.07;;;15.24;44.57
62592;BME280;48659;41.622;2.276;2023-03-19T13:04:15;100129.81;;;16.35;42.22
62592;BME280;48659;41.622;2.276;2023-03-19T13:06:49;100130.01;;;18.01;40.42
62592;BME280;48659;41.622;2.276;2023-03-19T13:09:27;100129.72;;;17.49;38.75
62592;BME280;48659;41.622;2.276;2023-03-19T13:11:59;100136.63;;;18.39;38.52